Time;durP1;ratioP1;P1;durP2;ratioP2;P2;SDS_P1;SDS_P2;PMS_P1;PMS_P2;Temp;Humidity;BMP_temperature;BMP_pressure;BME280_temperature;BME280_humidity;BME280_pressure;Samples;Min_cycle;Max_cycle;Signal;HPM_P1;HPM_P2
2022/05/10 00:01:40;;;;;;;23.55;17.95;;;;;;;14.29;72.61;101971.25;5082413;28;20020;-75
2022/05/10 00:04:07;;;;;;;23.70;18.13;;;;;;;14.19;72.32;101968.81;5082344;28;20052;-75
2022/05/10 00:06:36;;;;;;;24.52;18.60;;;;;;;14.12;72.23;101965.44;5082758;28;20044;-75
2022/05/10 00:09:03;;;;;;;24.58;18.23;;;;;;;14.06;73.08;101962.97;5079600;28;20051;-75
2022/05/10 00:11:29;;;;;;;24.52;19.02;;;;;;;14.07;72.30;101964.69;5092289;28;20111;-75
2022/05/10 00:13:54;;;;;;;25.30;18.27;;;;;;;14.04;72.32;101959.50;5082776;28;20106;-75
2022/05/10 00:16:19;;;;;;;25.60;18.45;;;;;;;14.00;73.11;101956.09;5073544;28;20068;-75
2022/05/10 00:18:46;;;;;;;29.60;18.00;;;;;;;13.87;73.73;101957.22;5078496;28;20058;-75
2022/05/10 00:21:22;;;;;;;25.63;17.92;;;;;;;13.88;73.35;101953.72;5079483;28;20052;-75
2022/05/10 00:23:48;;;;;;;25.17;18.42;;;;;;;13.89;73.17;101955.44;5079041;28;20028;-75
2022/05/10 00:26:13;;;;;;;27.08;18.55;;;;;;;13.82;73.91;101951.19;5072394;28;20086;-75
2022/05/10 00:28:39;;;;;;;24.40;17.85;;;;;;;13.74;74.59;101955.75;5074288;28;20040;-75
2022/05/10 00:31:06;;;;;;;31.40;18.80;;;;;;;13.62;75.09;101948.09;5073973;28;20032;-75
2022/05/10 00:33:31;;;;;;;27.15;19.52;;;;;;;13.56;75.80;101941.22;5079058;28;20028;-75
2022/05/10 00:35:58;;;;;;;26.55;19.55;;;;;;;13.56;75.66;101943.81;5072397;28;20054;-75
2022/05/10 00:38:30;;;;;;;26.13;18.73;;;;;;;13.60;75.51;101935.00;5080397;28;20034;-74
2022/05/10 00:41:05;;;;;;;29.15;19.65;;;;;;;13.56;75.37;101938.59;5088909;28;20116;-74
2022/05/10 00:43:38;;;;;;;32.47;20.92;;;;;;;13.50;76.05;101946.56;5090325;28;20036;-75
2022/05/10 00:46:10;;;;;;;27.92;19.58;;;;;;;13.46;76.26;101934.41;5084361;28;20041;-74
2022/05/10 00:49:12;;;;;;;28.13;20.85;;;;;;;13.46;74.78;101939.66;5088506;28;20032;-74
2022/05/10 00:51:49;;;;;;;30.15;20.45;;;;;;;13.40;76.18;101931.91;5083962;28;20424;-74
2022/05/10 00:54:42;;;;;;;35.22;21.25;;;;;;;13.41;75.15;101931.03;5074520;28;20464;-74
2022/05/10 00:57:17;;;;;;;32.13;19.98;;;;;;;13.35;76.28;101932.84;5072850;28;20428;-74
2022/05/10 01:00:09;;;;;;;26.92;19.83;;;;;;;13.36;76.16;101920.63;5091411;28;20035;-74
2022/05/10 01:02:46;;;;;;;33.33;20.73;;;;;;;13.26;76.87;101924.28;5077129;28;20123;-74
2022/05/10 01:05:34;;;;;;;29.52;20.33;;;;;;;13.20;76.13;101924.38;5084141;28;20472;-74
2022/05/10 01:08:18;;;;;;;33.20;19.75;;;;;;;13.17;77.29;101917.41;5085957;28;20112;-74
2022/05/10 01:10:47;;;;;;;;;;;;;;;13.23;73.36;101919.06;5090177;28;20529;-74
2022/05/10 01:13:32;;;;;;;31.25;19.42;;;;;;;13.10;77.83;101911.41;5090257;28;19920;-74
2022/05/10 01:16:12;;;;;;;33.13;20.85;;;;;;;13.02;77.31;101909.84;5088086;28;20044;-74
2022/05/10 01:18:39;;;;;;;36.00;19.67;;;;;;;13.00;78.78;101911.59;5080697;28;20071;-74
2022/05/10 01:21:16;;;;;;;31.13;20.05;;;;;;;12.98;78.42;101913.38;5085627;28;20492;-74
2022/05/10 01:24:02;;;;;;;30.58;21.02;;;;;;;12.93;78.24;101905.63;5074011;28;20052;-74
2022/05/10 01:26:54;;;;;;;33.85;19.25;;;;;;;12.88;79.12;101903.09;5071969;28;20063;-74
2022/05/10 01:29:26;;;;;;;34.50;19.55;;;;;;;12.89;79.79;101896.94;5071301;28;20404;-74
2022/05/10 01:34:56;;;;;;;31.23;19.85;;;;;;;12.76;81.16;101890.19;5024659;28;20209;-74
2022/05/10 01:37:24;;;;;;;27.55;19.45;;;;;;;12.76;80.72;101889.31;5074059;28;20368;-75
2022/05/10 01:40:00;;;;;;;28.42;21.50;;;;;;;12.76;80.47;101884.09;5075009;28;20043;-74
2022/05/10 01:42:33;;;;;;;28.90;20.67;;;;;;;12.69;80.92;101878.09;5084786;28;20864;-74
2022/05/10 01:45:05;;;;;;;29.92;22.40;;;;;;;12.65;81.48;101890.34;5087334;28;20115;-75
2022/05/10 01:47:43;;;;;;;31.60;20.63;;;;;;;12.57;81.34;101884.38;5075091;28;20036;-75
2022/05/10 01:50:23;;;;;;;29.63;20.35;;;;;;;12.54;81.93;101875.69;5089474;28;20039;-75
2022/05/10 01:53:20;;;;;;;28.90;20.88;;;;;;;12.53;81.58;101874.84;5076978;28;20054;-75
2022/05/10 01:55:49;;;;;;;26.30;20.42;;;;;;;12.53;82.54;101863.53;5071930;28;20052;-75
2022/05/10 01:58:16;;;;;;;27.92;20.73;;;;;;;12.54;82.96;101862.63;5074469;28;20455;-75
2022/05/10 02:00:45;;;;;;;31.65;22.02;;;;;;;12.54;82.15;101868.72;5083968;28;20036;-75
2022/05/10 02:03:23;;;;;;;29.17;21.50;;;;;;;12.59;81.30;101866.91;5081881;28;20028;-75
2022/05/10 02:06:05;;;;;;;29.67;20.52;;;;;;;12.63;81.22;101863.34;5078073;28;20038;-75
2022/05/10 02:08:55;;;;;;;32.63;20.98;;;;;;;12.64;81.00;101859.84;5076929;28;20107;-75
2022/05/10 02:11:22;;;;;;;33.53;21.05;;;;;;;12.68;81.55;101860.66;5079649;28;20024;-74
2022/05/10 02:13:58;;;;;;;26.63;20.77;;;;;;;12.71;80.91;101852.75;5071879;28;20020;-74
2022/05/10 02:16:30;;;;;;;31.48;21.17;;;;;;;12.67;81.56;101853.69;5085458;28;20174;-74
2022/05/10 02:19:03;;;;;;;30.02;21.50;;;;;;;12.75;80.74;101857.06;5083445;28;20028;-74
2022/05/10 02:21:33;;;;;;;30.83;21.55;;;;;;;12.81;80.71;101851.72;5087740;28;20877;-75
2022/05/10 02:24:14;;;;;;;30.08;21.60;;;;;;;12.86;80.13;101843.78;5083020;28;20068;-74
2022/05/10 02:27:04;;;;;;;27.58;21.10;;;;;;;12.88;79.49;101845.50;5081378;28;20036;-74
2022/05/10 02:29:39;;;;;;;29.83;21.00;;;;;;;12.88;80.46;101844.63;5083422;28;20036;-74
2022/05/10 02:35:02;;;;;;;24.05;20.33;;;;;;;12.88;81.09;101845.50;5083889;28;20093;-74
2022/05/10 02:37:28;;;;;;;27.20;19.73;;;;;;;12.94;81.32;101835.81;5079991;28;20486;-74
2022/05/10 02:39:53;;;;;;;25.48;20.70;;;;;;;12.86;81.59;101828.94;5078901;28;20032;-74
2022/05/10 02:42:21;;;;;;;27.35;20.63;;;;;;;12.84;81.09;101833.34;5073430;28;20039;-75
2022/05/10 02:44:50;;;;;;;26.98;20.35;;;;;;;12.84;81.68;101829.88;5081914;28;20036;-75
2022/05/10 02:47:26;;;;;;;29.67;21.77;;;;;;;12.84;81.39;101828.09;5088044;28;20062;-75
2022/05/10 02:49:51;;;;;;;25.92;20.35;;;;;;;12.76;81.42;101816.91;5086743;28;20371;-75
2022/05/10 02:52:16;;;;;;;27.40;21.88;;;;;;;12.78;81.57;101825.59;5071669;28;20460;-75
2022/05/10 02:54:42;;;;;;;28.42;20.92;;;;;;;12.81;81.75;101824.69;5076374;28;20495;-74
2022/05/10 02:57:07;;;;;;;23.13;19.65;;;;;;;12.81;81.57;101809.84;5079015;28;20074;-75
2022/05/10 02:59:35;;;;;;;27.70;21.67;;;;;;;12.82;81.94;101811.59;5088921;28;20068;-74
2022/05/10 03:02:12;;;;;;;28.40;21.17;;;;;;;12.81;81.04;101812.44;5083505;28;20472;-75
2022/05/10 03:04:42;;;;;;;31.80;20.10;;;;;;;12.83;81.30;101815.06;5090793;28;20070;-75
2022/05/10 03:07:08;;;;;;;28.20;20.95;;;;;;;12.81;81.77;101807.22;5073981;28;20025;-74
2022/05/10 03:09:34;;;;;;;29.17;21.23;;;;;;;12.83;81.19;101805.44;5090374;28;20454;-74
2022/05/10 03:12:03;;;;;;;27.77;19.63;;;;;;;12.85;81.83;101805.41;5076530;28;20056;-74
2022/05/10 03:14:28;;;;;;;31.65;21.20;;;;;;;12.86;81.56;101801.94;5070376;28;20025;-75
2022/05/10 03:16:53;;;;;;;27.35;21.70;;;;;;;12.87;80.87;101798.41;5075449;28;20045;-75
2022/05/10 03:19:19;;;;;;;28.10;21.30;;;;;;;12.85;81.50;101800.19;5075112;28;20036;-75
2022/05/10 03:21:44;;;;;;;25.05;20.40;;;;;;;12.91;81.93;101794.84;5077261;28;20035;-74
2022/05/10 03:24:10;;;;;;;26.58;21.15;;;;;;;12.78;81.84;101783.72;5093113;28;20028;-74
2022/05/10 03:26:36;;;;;;;29.30;20.83;;;;;;;12.87;82.00;101793.16;5087085;28;20039;-74
2022/05/10 03:29:02;;;;;;;29.33;20.38;;;;;;;12.88;81.42;101787.94;5074430;28;20533;-74
2022/05/10 03:31:28;;;;;;;30.67;21.08;;;;;;;12.93;81.93;101792.22;5078372;28;20090;-74
2022/05/10 03:36:38;;;;;;;27.73;21.05;;;;;;;12.92;81.89;101780.03;5082703;28;20043;-74
2022/05/10 03:39:05;;;;;;;30.00;20.85;;;;;;;12.93;81.58;101787.84;5087889;28;20114;-74
2022/05/10 03:41:31;;;;;;;28.42;21.23;;;;;;;12.91;82.00;101775.66;5087440;28;20031;-74
2022/05/10 03:43:56;;;;;;;29.02;20.92;;;;;;;12.91;81.93;101775.66;5094151;28;20383;-75
2022/05/10 03:46:21;;;;;;;29.42;21.33;;;;;;;12.86;81.92;101778.38;5085672;28;20033;-74
2022/05/10 03:48:49;;;;;;;31.58;20.60;;;;;;;12.88;81.99;101774.84;5084569;28;20037;-74
2022/05/10 03:51:14;;;;;;;26.52;20.38;;;;;;;12.87;82.05;101778.31;5081979;28;20029;-74
2022/05/10 03:53:40;;;;;;;26.45;19.92;;;;;;;12.88;82.23;101779.19;5075313;28;20040;-74
2022/05/10 03:56:05;;;;;;;26.98;20.52;;;;;;;12.88;82.09;101774.84;5088632;28;20020;-74
2022/05/10 03:58:30;;;;;;;31.38;21.02;;;;;;;12.82;82.44;101769.72;5092924;28;20055;-74
2022/05/10 04:00:55;;;;;;;30.55;20.45;;;;;;;12.87;82.17;101769.63;5089440;28;20024;-74
2022/05/10 04:03:21;;;;;;;27.77;20.70;;;;;;;12.82;82.56;101764.47;5081023;28;20032;-74
2022/05/10 04:05:46;;;;;;;29.33;20.95;;;;;;;12.88;82.65;101766.09;5090170;28;20469;-74
2022/05/10 04:08:11;;;;;;;28.13;21.08;;;;;;;12.82;82.95;101769.72;5076819;28;20036;-74
2022/05/10 04:10:36;;;;;;;28.30;21.40;;;;;;;12.87;82.81;101770.47;5074936;28;20024;-74
2022/05/10 04:13:02;;;;;;;28.45;20.85;;;;;;;12.87;83.18;101767.00;5091077;28;20035;-74
2022/05/10 04:15:28;;;;;;;27.02;20.98;;;;;;;12.88;83.48;101766.09;5093234;28;20020;-74
2022/05/10 04:17:53;;;;;;;32.95;21.77;;;;;;;12.92;83.32;101762.56;5093487;28;20031;-74
2022/05/10 04:20:21;;;;;;;28.17;22.10;;;;;;;12.95;83.37;101764.22;5092301;28;20033;-75
2022/05/10 04:22:47;;;;;;;32.50;22.38;;;;;;;12.94;83.73;101760.75;5080762;28;20042;-75
2022/05/10 04:25:13;;;;;;;27.70;21.30;;;;;;;13.04;83.74;101766.69;5081910;28;20032;-75
2022/05/10 04:27:39;;;;;;;28.83;21.42;;;;;;;13.11;83.65;101765.66;5083667;28;20024;-74
2022/05/10 04:30:05;;;;;;;31.50;22.17;;;;;;;13.20;83.99;101764.63;5092840;28;20028;-75
2022/05/10 04:32:30;;;;;;;33.92;22.40;;;;;;;13.26;83.73;101756.69;5088667;28;20039;-75
2022/05/10 04:34:55;;;;;;;35.88;21.50;;;;;;;13.31;83.65;101763.56;5094161;28;20515;-75
2022/05/10 04:37:20;;;;;;;32.17;22.33;;;;;;;13.37;84.01;101756.47;5077610;28;20035;-75
2022/05/10 04:42:30;;;;;;;31.88;21.45;;;;;;;13.47;82.55;101755.38;5074557;28;20546;-75
2022/05/10 04:44:55;;;;;;;29.63;21.05;;;;;;;13.54;82.70;101759.63;5073459;28;20029;-75
2022/05/10 04:47:20;;;;;;;31.83;20.75;;;;;;;13.59;82.55;101749.91;5089241;28;20044;-75
2022/05/10 04:49:46;;;;;;;31.60;20.08;;;;;;;13.68;81.92;101752.31;5093392;28;20471;-75
2022/05/10 04:52:11;;;;;;;30.42;20.20;;;;;;;13.75;81.17;101738.19;5091916;28;20039;-75
2022/05/10 04:54:37;;;;;;;31.25;21.08;;;;;;;13.84;81.26;101750.22;5086559;28;20070;-75
2022/05/10 04:57:04;;;;;;;28.85;19.40;;;;;;;13.94;81.16;101751.75;5092492;28;20479;-75
2022/05/10 04:59:30;;;;;;;29.30;20.70;;;;;;;13.98;80.50;101744.66;5075130;28;20132;-75
2022/05/10 05:01:55;;;;;;;31.17;19.73;;;;;;;14.00;79.29;101742.88;5073023;28;20104;-75
2022/05/10 05:04:20;;;;;;;29.20;19.73;;;;;;;14.15;78.89;101749.50;5072993;28;20066;-75
2022/05/10 05:06:45;;;;;;;29.40;19.67;;;;;;;14.25;77.40;101741.38;5083789;28;20062;-75
2022/05/10 05:09:11;;;;;;;30.30;19.88;;;;;;;14.35;77.19;101747.25;5076679;28;20094;-75
2022/05/10 05:11:36;;;;;;;29.25;19.17;;;;;;;14.42;77.15;101753.19;5074567;28;20480;-75
2022/05/10 05:14:01;;;;;;;30.70;19.40;;;;;;;14.53;76.73;101751.22;5082883;28;20028;-75
2022/05/10 05:16:27;;;;;;;23.88;18.27;;;;;;;14.61;76.51;101751.00;5091030;28;20024;-75
2022/05/10 05:18:52;;;;;;;28.55;18.48;;;;;;;14.68;75.14;101750.84;5076320;28;20090;-75
2022/05/10 05:21:17;;;;;;;26.25;18.55;;;;;;;14.73;76.78;101748.94;5072968;28;20029;-75
2022/05/10 05:23:43;;;;;;;22.33;18.17;;;;;;;14.79;75.92;101753.16;5076911;28;20089;-75
2022/05/10 05:26:08;;;;;;;26.25;18.65;;;;;;;14.81;76.89;101756.59;5076203;28;20016;-75
2022/05/10 05:28:34;;;;;;;24.58;17.67;;;;;;;14.86;76.07;101756.50;5083820;28;20384;-75
2022/05/10 05:30:59;;;;;;;24.75;16.67;;;;;;;14.90;74.74;101758.13;5079466;28;20067;-75
2022/05/10 05:33:25;;;;;;;25.08;17.10;;;;;;;14.94;76.20;101744.00;5092472;28;20112;-75
2022/05/10 05:35:50;;;;;;;23.98;17.50;;;;;;;14.98;74.97;101749.16;5077041;28;20037;-75
2022/05/10 05:38:15;;;;;;;26.30;17.73;;;;;;;15.04;74.70;101756.00;5087779;28;20032;-75
2022/05/10 05:40:41;;;;;;;22.30;16.40;;;;;;;15.03;75.98;101746.38;5091515;28;20028;-75
2022/05/10 05:43:06;;;;;;;20.88;17.48;;;;;;;15.11;75.28;101754.06;5091235;28;20463;-75
2022/05/10 05:45:32;;;;;;;21.58;17.55;;;;;;;15.13;75.72;101741.75;5090346;28;20376;-75
2022/05/10 05:47:57;;;;;;;23.42;16.98;;;;;;;15.24;73.41;101752.81;5085954;28;20432;-75
2022/05/10 05:50:24;;;;;;;20.77;16.98;;;;;;;15.36;74.29;101752.44;5089610;28;20380;-75
2022/05/10 05:52:51;;;;;;;22.92;17.02;;;;;;;15.54;73.95;101744.94;5073433;28;20115;-75
2022/05/10 05:55:18;;;;;;;22.30;17.00;;;;;;;15.72;73.43;101736.53;5075733;28;20032;-74
2022/05/10 05:57:43;;;;;;;21.05;17.05;;;;;;;15.84;72.81;101733.53;5073623;28;20041;-74
2022/05/10 06:00:13;;;;;;;22.42;17.02;;;;;;;15.96;72.90;101726.16;5078594;28;20080;-74
2022/05/10 06:02:39;;;;;;;21.65;16.92;;;;;;;16.08;71.53;101726.63;5070053;28;20090;-74
2022/05/10 06:05:05;;;;;;;21.63;15.88;;;;;;;16.09;72.00;101717.84;5072250;28;20131;-74
2022/05/10 06:07:31;;;;;;;21.92;16.52;;;;;;;16.14;72.40;101725.56;5090588;28;20028;-74
2022/05/10 06:09:56;;;;;;;22.33;16.05;;;;;;;16.13;70.80;101722.06;5076546;28;20490;-74
2022/05/10 06:12:21;;;;;;;22.27;16.40;;;;;;;16.23;72.35;101727.91;5076260;28;20388;-74
2022/05/10 06:14:47;;;;;;;20.80;15.65;;;;;;;16.34;71.85;101732.78;5091133;28;20103;-74
2022/05/10 06:17:13;;;;;;;19.10;14.75;;;;;;;16.43;70.20;101726.38;5088347;28;20028;-74
2022/05/10 06:19:41;;;;;;;16.85;13.70;;;;;;;16.59;69.75;101741.59;5075485;28;20114;-74
2022/05/10 06:22:09;;;;;;;20.10;14.88;;;;;;;16.73;69.23;101740.25;5075920;28;20052;-74
2022/05/10 06:24:34;;;;;;;16.83;13.50;;;;;;;16.91;69.23;101736.16;5070540;28;20129;-73
2022/05/10 06:27:01;;;;;;;16.35;13.98;;;;;;;17.05;69.18;101726.84;5079515;28;20492;-74
2022/05/10 06:29:26;;;;;;;19.80;13.07;;;;;;;17.21;68.93;101726.28;5080196;28;20407;-73
2022/05/10 06:31:51;;;;;;;19.73;13.68;;;;;;;17.29;68.65;101722.41;5074125;28;20037;-73
2022/05/10 06:34:17;;;;;;;15.20;12.73;;;;;;;17.44;67.69;101721.00;5078486;28;20033;-73
2022/05/10 06:36:43;;;;;;;14.88;11.93;;;;;;;17.51;66.55;101722.47;5073255;28;20025;-73
2022/05/10 06:39:09;;;;;;;15.32;12.63;;;;;;;17.71;66.16;101721.69;5079784;28;20089;-73
2022/05/10 06:41:34;;;;;;;14.77;12.70;;;;;;;17.80;66.33;101720.50;5091728;28;20559;-74
2022/05/10 06:44:00;;;;;;;17.45;11.73;;;;;;;17.92;65.58;101721.78;5083793;28;20044;-74
2022/05/10 06:46:27;;;;;;;14.65;11.48;;;;;;;18.06;65.99;101721.25;5073744;28;20028;-73
2022/05/10 06:48:53;;;;;;;16.08;11.77;;;;;;;18.16;66.44;101717.31;5071311;28;20016;-74
2022/05/10 06:51:21;;;;;;;12.05;10.73;;;;;;;18.25;63.74;101719.56;5086896;28;20031;-73
2022/05/10 06:53:47;;;;;;;17.58;10.68;;;;;;;18.29;63.44;101710.59;5094145;28;20157;-73
2022/05/10 06:56:12;;;;;;;20.80;10.88;;;;;;;18.35;63.07;101712.97;5078462;28;20115;-73
2022/05/10 06:58:39;;;;;;;12.50;10.40;;;;;;;18.41;65.31;101706.56;5093159;28;20052;-73
2022/05/10 07:01:11;;;;;;;14.07;10.23;;;;;;;18.47;65.24;101711.59;5078416;28;20028;-73
2022/05/10 07:03:55;;;;;;;12.98;10.02;;;;;;;18.47;64.21;101709.84;5074970;28;20371;-73
2022/05/10 07:06:25;;;;;;;14.93;9.73;;;;;;;18.55;64.80;101706.84;5074628;28;20027;-73
2022/05/10 07:08:51;;;;;;;14.27;9.90;;;;;;;18.64;64.36;101708.25;5074994;28;20119;-73
2022/05/10 07:11:16;;;;;;;12.68;10.27;;;;;;;18.76;65.87;101704.22;5075067;28;20539;-73
2022/05/10 07:13:42;;;;;;;14.88;10.20;;;;;;;18.91;62.70;101701.75;5074045;28;20028;-73
2022/05/10 07:16:07;;;;;;;12.57;9.60;;;;;;;19.10;62.06;101693.03;5074982;28;20043;-73
2022/05/10 07:18:33;;;;;;;14.40;9.95;;;;;;;19.24;62.87;101692.38;5074400;28;20024;-73
2022/05/10 07:20:58;;;;;;;12.20;9.38;;;;;;;19.24;61.20;101682.66;5074276;28;20029;-73
2022/05/10 07:23:29;;;;;;;11.60;9.05;;;;;;;19.35;62.33;101690.06;5074859;28;20047;-73
2022/05/10 07:25:55;;;;;;;13.07;9.57;;;;;;;19.53;61.34;101677.78;5074871;28;20134;-73
2022/05/10 07:28:20;;;;;;;13.18;9.63;;;;;;;19.81;59.38;101683.47;5073684;28;20033;-73
2022/05/10 07:30:45;;;;;;;14.00;9.45;;;;;;;20.00;59.48;101683.44;5074553;28;20050;-73
2022/05/10 07:33:11;;;;;;;13.65;8.45;;;;;;;20.20;58.60;101677.13;5074352;28;20027;-73
2022/05/10 07:38:21;;;;;;;13.93;8.45;;;;;;;20.37;57.89;101686.88;5074703;28;20093;-73
2022/05/10 07:40:49;;;;;;;13.50;8.27;;;;;;;20.39;56.69;101677.06;5073921;28;20029;-73
2022/05/10 07:43:16;;;;;;;12.57;7.80;;;;;;;20.43;56.90;101673.31;5074435;28;20024;-73
2022/05/10 07:45:43;;;;;;;14.25;7.82;;;;;;;20.57;57.78;101677.97;5074148;28;20028;-73
2022/05/10 07:48:09;;;;;;;11.10;7.70;;;;;;;20.70;55.97;101678.13;5073893;28;20047;-73
2022/05/10 07:50:34;;;;;;;9.63;6.95;;;;;;;20.85;55.05;101676.47;5074234;28;20028;-73
2022/05/10 07:53:06;;;;;;;10.30;6.93;;;;;;;21.01;56.46;101669.41;5074689;28;20031;-73
2022/05/10 07:55:34;;;;;;;8.80;6.68;;;;;;;21.19;56.92;101676.38;5073198;28;20029;-73
2022/05/10 07:58:00;;;;;;;11.70;7.53;;;;;;;21.27;55.53;101683.91;5074149;28;20041;-73
2022/05/10 08:00:25;;;;;;;12.52;7.00;;;;;;;21.31;54.87;101666.03;5073704;28;20020;-73
2022/05/10 08:02:51;;;;;;;9.82;7.30;;;;;;;21.31;55.66;101673.97;5072122;28;20028;-73
2022/05/10 08:05:21;;;;;;;13.93;6.75;;;;;;;21.45;54.50;101671.44;5073874;28;20024;-73
2022/05/10 08:07:47;;;;;;;10.77;7.00;;;;;;;21.57;56.17;101672.56;5073844;28;20107;-73
2022/05/10 08:10:16;;;;;;;10.30;6.72;;;;;;;21.74;53.86;101675.97;5072927;28;20108;-73
2022/05/10 08:12:41;;;;;;;9.55;7.10;;;;;;;21.86;53.29;101671.75;5073618;28;20020;-73
2022/05/10 08:15:08;;;;;;;12.90;7.03;;;;;;;21.85;51.59;101674.50;5074133;28;20027;-73
2022/05/10 08:17:33;;;;;;;15.90;7.35;;;;;;;21.80;51.66;101671.25;5072580;28;20392;-73
2022/05/10 08:19:59;;;;;;;12.30;7.18;;;;;;;21.82;51.64;101672.88;5074114;28;20021;-73
2022/05/10 08:22:24;;;;;;;7.68;6.82;;;;;;;21.87;51.65;101670.78;5073694;28;20094;-73
2022/05/10 08:24:49;;;;;;;13.85;6.97;;;;;;;21.89;51.71;101673.38;5072835;28;20397;-73
2022/05/10 08:27:15;;;;;;;12.80;7.07;;;;;;;21.85;50.99;101666.53;5073469;28;20033;-73
2022/05/10 08:29:41;;;;;;;10.20;7.65;;;;;;;21.84;51.80;101672.78;5073510;28;20452;-73
2022/05/10 08:32:07;;;;;;;10.80;7.10;;;;;;;21.62;51.39;101667.88;5073211;28;20480;-73
2022/05/10 08:34:34;;;;;;;10.68;6.65;;;;;;;21.50;51.39;101654.34;5072228;28;20480;-73
2022/05/10 08:37:01;;;;;;;10.85;6.40;;;;;;;21.44;52.44;101649.38;5072853;28;20537;-74
2022/05/10 08:39:26;;;;;;;16.25;6.95;;;;;;;21.44;52.03;101659.13;5092156;28;20051;-74
2022/05/10 08:41:56;;;;;;;9.60;6.80;;;;;;;21.42;51.27;101651.28;5093430;28;20054;-74
2022/05/10 08:44:25;;;;;;;12.68;7.00;;;;;;;21.46;50.70;101652.81;5078472;28;20029;-77
2022/05/10 08:47:03;;;;;;;10.77;6.35;;;;;;;21.52;52.58;101648.97;5075190;28;20042;-77
2022/05/10 08:49:41;;;;;;;13.85;6.10;;;;;;;21.68;53.03;101648.91;5076282;28;20107;-76
2022/05/10 08:52:06;;;;;;;8.90;6.60;;;;;;;21.76;50.39;101645.84;5070743;28;20025;-77
2022/05/10 08:54:35;;;;;;;10.00;6.30;;;;;;;21.79;50.37;101649.16;5077242;28;20026;-77
2022/05/10 08:57:08;;;;;;;9.20;6.53;;;;;;;21.92;50.67;101644.00;5077110;28;20023;-76
2022/05/10 08:59:54;;;;;;;8.75;6.30;;;;;;;22.07;51.02;101643.13;5073701;28;20036;-76
2022/05/10 09:02:47;;;;;;;10.57;6.18;;;;;;;22.25;51.17;101635.03;5071136;28;20029;-76
2022/05/10 09:05:36;;;;;;;9.43;6.07;;;;;;;22.64;49.97;101632.59;5062084;28;20033;-77
2022/05/10 09:08:31;;;;;;;9.48;6.32;;;;;;;22.89;47.45;101631.94;5074889;28;20024;-76
2022/05/10 09:11:00;;;;;;;11.35;6.22;;;;;;;22.91;46.77;101629.16;5081432;28;20020;-74
2022/05/10 09:13:26;;;;;;;14.38;6.20;;;;;;;23.09;47.56;101632.50;5074831;28;20032;-74
2022/05/10 09:15:55;;;;;;;9.77;6.30;;;;;;;23.33;47.59;101624.75;5073817;28;20027;-74
2022/05/10 09:18:23;;;;;;;11.82;6.25;;;;;;;23.45;47.81;101621.28;5072263;28;20472;-74
2022/05/10 09:21:13;;;;;;;9.98;5.88;;;;;;;23.68;47.22;101608.28;5071458;28;20028;-74
2022/05/10 09:23:41;;;;;;;7.00;5.90;;;;;;;23.86;46.85;101627.50;5072331;28;20036;-74
2022/05/10 09:26:10;;;;;;;11.30;7.03;;;;;;;23.80;45.11;101626.97;5072886;28;20052;-74
2022/05/10 09:28:44;;;;;;;12.65;6.35;;;;;;;23.89;44.99;101622.00;5071659;28;20028;-74
2022/05/10 09:37:30;;;;;;;7.68;5.88;;;;;;;24.05;47.04;101610.19;5072814;28;20042;-76
2022/05/10 09:39:55;;;;;;;11.07;6.50;;;;;;;24.09;45.96;101607.31;5075707;28;20044;-75
2022/05/10 09:42:25;;;;;;;13.90;6.63;;;;;;;24.01;46.12;101616.69;5088832;28;20169;-75
2022/05/10 09:45:05;;;;;;;8.35;6.47;;;;;;;23.89;46.68;101606.00;5092518;28;20066;-76
2022/05/10 09:47:31;;;;;;;7.55;5.78;;;;;;;23.74;45.57;101607.88;5089050;28;20028;-76
2022/05/10 09:50:19;;;;;;;7.90;6.30;;;;;;;23.73;46.99;101609.69;5090429;28;20031;-76
2022/05/10 09:52:46;;;;;;;14.02;6.28;;;;;;;23.67;46.12;101606.56;5092173;28;20066;-76
2022/05/10 09:55:51;;;;;;;9.68;6.20;;;;;;;23.85;46.57;101604.53;5091532;28;20035;-75
2022/05/10 09:58:19;;;;;;;8.95;6.45;;;;;;;24.12;45.07;101605.28;5059371;28;20045;-75
2022/05/10 10:00:52;;;;;;;7.50;5.93;;;;;;;24.35;47.93;101595.72;5071814;28;20411;-75
2022/05/10 10:03:37;;;;;;;10.75;6.47;;;;;;;24.48;44.83;101591.25;5086285;28;20032;-76
2022/05/10 10:06:23;;;;;;;11.82;6.55;;;;;;;24.52;44.56;101583.91;5073636;28;20032;-75
2022/05/10 10:08:51;;;;;;;10.48;6.28;;;;;;;24.60;45.03;101584.22;5091152;28;20081;-76
2022/05/10 10:11:29;;;;;;;11.48;6.35;;;;;;;24.95;44.13;101581.69;5091829;28;20024;-76
2022/05/10 10:14:06;;;;;;;6.50;5.90;;;;;;;25.11;42.38;101578.75;5092133;28;20052;-76
2022/05/10 10:16:45;;;;;;;10.65;6.40;;;;;;;25.02;43.16;101573.25;5088812;28;20028;-76
2022/05/10 10:19:25;;;;;;;10.52;5.60;;;;;;;24.99;43.74;101579.66;5083444;28;20541;-76
2022/05/10 10:21:56;;;;;;;8.30;5.85;;;;;;;25.28;42.80;101566.88;5073665;28;20048;-76
2022/05/10 10:24:40;;;;;;;15.43;5.55;;;;;;;25.61;40.13;101563.50;5072623;28;20082;-76
2022/05/10 10:27:14;;;;;;;16.50;5.85;;;;;;;25.72;40.15;101568.03;5088022;28;20055;-77
2022/05/10 10:29:46;;;;;;;11.95;5.45;;;;;;;25.87;39.77;101553.53;5086353;28;20059;-77
2022/05/10 10:32:20;;;;;;;10.48;5.00;;;;;;;26.11;40.15;101571.31;5077207;28;20108;-76
2022/05/10 10:34:52;;;;;;;10.98;5.88;;;;;;;26.15;38.19;101570.09;5082907;28;20032;-78
2022/05/10 10:37:36;;;;;;;14.77;5.80;;;;;;;26.17;39.17;101567.31;5074459;28;20052;-76
2022/05/10 10:40:30;;;;;;;13.52;6.75;;;;;;;26.33;40.42;101555.28;5074648;28;20025;-77
2022/05/10 10:43:21;;;;;;;9.02;5.85;;;;;;;27.04;39.53;101549.63;5074104;28;20070;-77
2022/05/10 10:45:52;;;;;;;12.27;5.65;;;;;;;27.49;35.23;101550.34;5076331;28;20498;-77
2022/05/10 10:48:27;;;;;;;12.20;5.72;;;;;;;27.30;35.05;101566.25;5089524;28;20388;-77
2022/05/10 10:50:52;;;;;;;9.23;6.07;;;;;;;27.02;34.79;101551.59;5088907;28;20024;-77
2022/05/10 10:53:20;;;;;;;11.85;6.35;;;;;;;26.91;35.28;101551.63;5076373;28;20110;-77
2022/05/10 10:55:52;;;;;;;14.45;5.85;;;;;;;26.99;36.87;101544.69;5091676;28;20020;-77
2022/05/10 10:58:52;;;;;;;21.77;6.85;;;;;;;27.05;37.59;101544.19;5090656;28;20120;-77
2022/05/10 11:01:29;;;;;;;21.83;7.28;;;;;;;26.80;35.88;101537.28;5090083;28;20040;-77
2022/05/10 11:04:12;;;;;;;18.95;6.45;;;;;;;26.54;37.01;101534.03;5090250;28;20032;-77
2022/05/10 11:06:48;;;;;;;18.77;6.57;;;;;;;26.61;37.61;101537.09;5080504;28;20028;-77
2022/05/10 11:09:44;;;;;;;12.68;6.57;;;;;;;26.68;37.87;101532.09;5078971;28;20043;-77
2022/05/10 11:12:34;;;;;;;9.80;5.38;;;;;;;26.51;37.01;101530.78;5070452;28;20059;-77
2022/05/10 11:15:08;;;;;;;18.75;6.70;;;;;;;26.18;37.73;101537.78;5080390;28;20491;-78
2022/05/10 11:18:17;;;;;;;14.10;5.85;;;;;;;26.00;37.95;101526.72;5069482;28;20036;-78
2022/05/10 11:21:00;;;;;;;13.93;6.18;;;;;;;25.71;36.58;101531.63;5081213;28;20434;-78
2022/05/10 11:23:40;;;;;;;9.55;5.60;;;;;;;25.77;38.52;101524.94;5082203;28;20032;-79
2022/05/10 11:26:16;;;;;;;11.23;5.65;;;;;;;25.92;39.11;101519.28;5083158;28;20044;-79
2022/05/10 11:29:05;;;;;;;11.65;5.68;;;;;;;26.19;38.72;101519.94;5070940;28;20082;-78
2022/05/10 11:31:50;;;;;;;8.77;5.82;;;;;;;26.52;37.24;101509.28;5086638;28;20167;-78
2022/05/10 11:34:33;;;;;;;10.75;6.00;;;;;;;26.89;37.63;101508.09;5070991;28;20039;-77
2022/05/10 11:37:01;;;;;;;;;;;;;;;27.20;37.01;101506.44;5090910;28;20459;-75
2022/05/10 11:39:38;;;;;;;11.75;6.25;;;;;;;27.25;36.15;101498.88;5082409;28;20378;-74
2022/05/10 11:42:24;;;;;;;9.70;6.35;;;;;;;27.24;36.74;101503.41;5074216;28;20016;-75
2022/05/10 11:45:07;;;;;;;12.50;6.03;;;;;;;26.92;38.19;101494.47;5074319;28;20100;-75
2022/05/10 11:47:53;;;;;;;;;;;;;;;27.01;37.44;101499.94;5073694;28;20103;-75
2022/05/10 11:54:03;;;;;;;19.88;5.82;;;;;;;26.91;35.59;101495.44;5074502;28;20042;-75
2022/05/10 11:56:34;;;;;;;17.33;6.00;;;;;;;26.68;35.00;101495.50;5074054;28;20464;-75